Time;durP1;ratioP1;P1;durP2;ratioP2;P2;SDS_P1;SDS_P2;PMS_P1;PMS_P2;Temp;Humidity;BMP_temperature;BMP_pressure;BME280_temperature;BME280_humidity;BME280_pressure;Samples;Min_cycle;Max_cycle;Signal;HPM_P1;HPM_P2
2022/06/11 00:07:19;;;;;;;15.30;7.50;;;;;;;13.54;76.68;99155.77;433527;1265;112436;-39
2022/06/11 00:17:27;;;;;;;19.50;8.80;;;;;;;13.30;76.49;99160.13;433703;1267;108852;-40
2022/06/11 00:27:34;;;;;;;23.30;9.70;;;;;;;13.22;76.86;99160.04;433751;1267;99264;-40
2022/06/11 00:37:43;;;;;;;16.00;9.70;;;;;;;13.10;76.83;99156.43;433447;1267;107894;-42
2022/06/11 00:47:56;;;;;;;17.00;9.80;;;;;;;13.16;77.34;99155.67;433627;1267;99830;-39
2022/06/11 00:58:05;;;;;;;14.20;9.50;;;;;;;13.03;77.19;99155.91;433879;1266;112477;-41
2022/06/11 01:08:30;;;;;;;12.80;9.10;;;;;;;12.77;77.19;99159.24;433867;1267;108992;-40
2022/06/11 01:18:39;;;;;;;8.90;6.80;;;;;;;12.63;77.37;99160.41;433723;1269;99297;-39
2022/06/11 01:28:48;;;;;;;18.30;8.30;;;;;;;12.54;77.44;99156.60;434308;1258;108771;-40
2022/06/11 01:39:00;;;;;;;13.20;8.30;;;;;;;12.55;77.74;99151.00;433686;1268;99258;-41
2022/06/11 01:59:31;;;;;;;12.60;8.50;;;;;;;12.22;77.75;99157.52;433610;1267;108928;-41
2022/06/11 02:09:43;;;;;;;8.90;7.40;;;;;;;12.32;78.17;99156.59;433631;1267;99240;-41
2022/06/11 02:30:02;;;;;;;12.80;9.00;;;;;;;12.15;78.06;99153.79;433680;1267;99289;-41
2022/06/11 02:40:12;;;;;;;15.60;8.00;;;;;;;11.99;78.09;99151.24;433613;1267;112388;-41
2022/06/11 02:50:25;;;;;;;9.00;7.60;;;;;;;11.84;77.90;99158.02;433619;1267;108852;-40
2022/06/11 03:00:33;;;;;;;12.30;8.60;;;;;;;11.90;78.26;99171.15;433708;1267;99273;-41
2022/06/11 03:10:40;;;;;;;16.80;8.70;;;;;;;12.11;78.43;99170.76;433746;1267;108866;-41
2022/06/11 03:20:48;;;;;;;14.10;7.70;;;;;;;14.04;77.69;99184.89;433472;1267;99251;-40
2022/06/11 03:30:56;;;;;;;10.40;7.10;;;;;;;17.27;75.58;99173.94;433683;1267;112561;-42
2022/06/11 03:41:04;;;;;;;8.20;6.70;;;;;;;19.82;72.89;99168.90;433813;1267;108753;-44
2022/06/11 03:51:11;;;;;;;9.00;5.70;;;;;;;21.58;70.57;99173.30;433747;1267;98745;-41
2022/06/11 04:11:26;;;;;;;6.80;5.50;;;;;;;23.95;66.87;99194.64;433647;1269;99240;-41
2022/06/11 04:21:36;;;;;;;9.00;7.60;;;;;;;25.06;65.43;99198.22;433796;1268;112466;-40
2022/06/11 04:31:45;;;;;;;10.60;9.30;;;;;;;25.95;63.82;99194.88;433832;1266;108954;-41
2022/06/11 04:41:55;;;;;;;10.30;5.50;;;;;;;26.60;61.98;99201.54;433798;1267;98841;-43
2022/06/11 04:52:02;;;;;;;14.30;8.70;;;;;;;26.65;60.77;99208.75;433896;1267;108835;-44
2022/06/11 05:02:07;;;;;;;10.60;5.80;;;;;;;26.37;59.88;99212.53;433861;1267;99254;-41
2022/06/11 05:12:12;;;;;;;5.00;3.50;;;;;;;25.93;58.84;99208.11;433693;1267;112449;-41
2022/06/11 05:22:18;;;;;;;7.00;4.00;;;;;;;25.09;58.56;99213.35;433901;1267;108859;-41
2022/06/11 05:32:29;;;;;;;7.00;2.90;;;;;;;24.47;57.84;99209.56;433679;1266;99337;-41
2022/06/11 05:42:35;;;;;;;4.00;3.10;;;;;;;22.84;56.99;99221.02;433792;1267;108790;-41
2022/06/11 05:52:45;;;;;;;6.30;2.90;;;;;;;22.78;58.04;99221.56;433702;1267;99257;-41
2022/06/11 06:02:52;;;;;;;4.00;2.50;;;;;;;23.41;57.56;99220.16;433806;1267;112481;-43
2022/06/11 06:12:58;;;;;;;;;;;;;;;23.62;57.62;99221.87;433710;1267;108465;-41
2022/06/11 06:23:10;;;;;;;2.10;1.30;;;;;;;24.17;56.47;99228.67;433646;1268;99282;-41
2022/06/11 06:33:16;;;;;;;1.60;1.50;;;;;;;24.37;55.77;99236.98;433747;1267;112615;-41
2022/06/11 06:43:31;;;;;;;2.00;1.30;;;;;;;24.23;53.75;99237.83;433709;1267;108868;-41
2022/06/11 06:53:36;;;;;;;4.00;1.00;;;;;;;24.39;53.40;99242.08;433878;1267;99020;-43
2022/06/11 07:03:42;;;;;;;2.20;1.00;;;;;;;24.33;51.44;99247.02;433911;1267;109941;-41
2022/06/11 07:14:08;;;;;;;2.10;1.10;;;;;;;23.73;49.28;99252.36;433669;1267;99268;-42
2022/06/11 07:24:25;;;;;;;3.20;1.30;;;;;;;24.08;49.91;99257.70;433582;1267;112450;-41
2022/06/11 07:44:40;;;;;;;1.90;1.20;;;;;;;23.31;47.12;99264.92;433798;1267;98946;-41
2022/06/11 07:54:47;;;;;;;5.80;1.70;;;;;;;23.63;47.65;99266.50;433495;1267;108866;-41
2022/06/11 08:04:53;;;;;;;5.10;0.80;;;;;;;23.07;46.67;99267.20;433641;1267;98084;-40
2022/06/11 08:15:00;;;;;;;2.50;1.40;;;;;;;23.22;46.72;99267.02;433673;1267;112303;-41
2022/06/11 08:25:12;;;;;;;2.60;1.00;;;;;;;23.32;45.86;99268.36;433794;1267;108809;-42
2022/06/11 08:35:21;;;;;;;3.10;1.20;;;;;;;23.12;45.12;99265.85;433663;1267;98844;-43
2022/06/11 08:45:33;;;;;;;2.00;1.20;;;;;;;22.86;45.34;99259.50;433654;1267;108791;-40
2022/06/11 08:55:41;;;;;;;4.30;1.10;;;;;;;23.34;45.35;99261.52;433790;1268;99292;-40
2022/06/11 09:06:19;;;;;;;4.90;1.70;;;;;;;23.11;44.50;99266.37;433641;1267;112562;-42
2022/06/11 09:16:25;;;;;;;5.30;1.10;;;;;;;22.57;43.81;99262.19;433667;1267;109177;-41
2022/06/11 09:26:38;;;;;;;4.00;1.50;;;;;;;22.97;45.30;99253.14;433349;1267;639906;-42
2022/06/11 09:36:47;;;;;;;7.20;2.00;;;;;;;22.98;45.45;99244.95;433744;1267;108781;-43
2022/06/11 09:46:57;;;;;;;2.00;1.10;;;;;;;23.03;44.66;99239.77;433696;1267;99257;-40
2022/06/11 09:57:14;;;;;;;5.10;1.60;;;;;;;22.80;44.99;99235.80;433682;1267;112408;-42
2022/06/11 10:07:21;;;;;;;;;;;;;;;23.15;45.35;99229.11;433625;1268;108764;-41
2022/06/11 10:27:32;;;;;;;3.40;1.20;;;;;;;23.21;44.69;99219.19;433874;1267;107041;-43
2022/06/11 10:37:44;;;;;;;5.20;1.60;;;;;;;22.99;44.22;99214.66;433684;1268;99363;-41
2022/06/11 10:47:54;;;;;;;2.30;1.50;;;;;;;23.06;44.76;99202.05;433996;1268;112935;-40
2022/06/11 10:58:11;;;;;;;4.10;1.40;;;;;;;23.16;44.62;99198.07;433945;1268;108931;-44
2022/06/11 11:08:17;;;;;;;3.30;1.40;;;;;;;23.41;44.31;99189.45;433579;1267;99958;-39
2022/06/11 11:18:28;;;;;;;5.90;1.50;;;;;;;23.25;44.24;99184.58;433763;1267;112463;-42
2022/06/11 11:28:38;;;;;;;2.80;1.40;;;;;;;23.61;44.74;99176.24;433671;1267;108795;-41
2022/06/11 11:38:46;;;;;;;6.10;1.50;;;;;;;23.31;43.66;99174.42;433673;1267;99342;-44
2022/06/11 11:48:56;;;;;;;3.60;1.50;;;;;;;23.50;44.49;99165.10;433780;1268;112432;-40
2022/06/11 11:59:10;;;;;;;6.50;1.40;;;;;;;23.82;43.85;99166.31;433753;1268;108802;-44
2022/06/11 12:09:20;;;;;;;5.50;2.30;;;;;;;24.01;44.15;99162.61;433660;1268;99329;-40
2022/06/11 12:19:26;;;;;;;3.00;1.50;;;;;;;23.92;43.71;99156.00;433747;1268;109325;-40
2022/06/11 12:29:39;;;;;;;7.20;2.10;;;;;;;23.88;43.96;99155.77;433673;1268;99307;-42
2022/06/11 12:39:46;;;;;;;2.00;1.00;;;;;;;23.12;44.11;99155.20;433745;1268;112420;-43
2022/06/11 12:49:52;;;;;;;6.90;1.60;;;;;;;23.43;44.36;99153.89;433859;1267;108726;-42
2022/06/11 13:00:05;;;;;;;2.50;1.00;;;;;;;23.79;43.74;99150.67;433709;1268;99245;-40
2022/06/11 13:10:16;;;;;;;6.50;1.70;;;;;;;23.66;43.15;99150.42;433803;1267;109031;-44
2022/06/11 13:20:29;;;;;;;2.70;0.90;;;;;;;23.39;42.71;99147.23;433875;1268;99240;-42
2022/06/11 13:30:37;;;;;;;2.90;1.50;;;;;;;23.38;43.59;99151.45;433907;1268;111365;-40
2022/06/11 13:40:42;;;;;;;2.70;1.50;;;;;;;23.49;43.56;99157.51;434054;1267;108906;-41
2022/06/11 13:50:52;;;;;;;6.00;2.00;;;;;;;23.18;43.44;99161.61;433803;1268;99273;-42
2022/06/11 14:01:01;;;;;;;5.00;1.40;;;;;;;23.04;44.46;99150.55;433967;1268;108647;-41
2022/06/11 14:11:17;;;;;;;6.00;1.80;;;;;;;23.30;44.19;99145.83;433794;1268;99281;-40
2022/06/11 14:21:43;;;;;;;6.20;1.70;;;;;;;23.51;44.25;99139.21;433727;1268;112412;-41
2022/06/11 15:03:15;;;;;;;3.90;1.40;;;;;;;23.06;45.03;99109.63;433267;1269;99250;-44
2022/06/11 15:13:50;;;;;;;6.60;2.30;;;;;;;23.34;44.38;99102.38;433788;1268;112454;-42
2022/06/11 15:23:58;;;;;;;4.30;1.50;;;;;;;23.21;44.58;99093.14;433597;1268;108878;-44
2022/06/11 15:34:08;;;;;;;16.10;3.60;;;;;;;23.43;44.69;99089.27;433854;1268;99545;-40
2022/06/11 16:04:45;;;;;;;5.60;2.20;;;;;;;23.07;43.90;99089.25;433955;1268;112401;-42
2022/06/11 16:14:53;;;;;;;6.50;1.90;;;;;;;22.48;45.06;99089.32;434080;1268;107093;-43
2022/06/11 16:25:02;;;;;;;4.80;1.80;;;;;;;22.50;45.47;99083.20;434034;1268;99266;-41
2022/06/11 16:35:17;;;;;;;6.40;1.50;;;;;;;22.84;45.49;99086.04;433859;1268;112384;-41
2022/06/11 16:45:28;;;;;;;3.30;1.90;;;;;;;23.08;45.05;99086.45;434023;1268;108542;-44
2022/06/11 17:06:01;;;;;;;2.70;1.40;;;;;;;23.01;44.88;99083.13;433025;1271;108879;-41
2022/06/11 17:16:16;;;;;;;5.00;2.00;;;;;;;22.51;45.12;99077.41;434044;1268;99270;-41
2022/06/11 17:26:29;;;;;;;3.60;1.90;;;;;;;22.30;45.55;99073.89;433883;1267;112338;-43
2022/06/11 17:36:39;;;;;;;12.40;2.10;;;;;;;22.16;46.30;99073.98;433872;1268;107868;-41
2022/06/11 17:46:46;;;;;;;3.70;1.80;;;;;;;22.00;46.95;99075.29;434047;1268;99285;-43
2022/06/11 17:56:54;;;;;;;2.60;1.90;;;;;;;21.77;47.54;99080.70;433132;1268;108189;-41
2022/06/11 18:07:04;;;;;;;6.90;2.20;;;;;;;21.52;48.04;99083.91;434050;1268;99262;-41
2022/06/11 18:17:13;;;;;;;5.70;2.20;;;;;;;21.30;49.00;99092.57;433856;1267;112324;-41
2022/06/11 18:27:20;;;;;;;4.60;2.10;;;;;;;21.06;49.69;99102.15;433812;1268;109466;-42
2022/06/11 18:37:28;;;;;;;6.70;2.40;;;;;;;20.71;50.42;99107.69;433847;1268;99242;-42
2022/06/11 18:47:36;;;;;;;7.10;2.40;;;;;;;20.21;51.34;99120.34;433640;1268;108914;-44
2022/06/11 18:57:44;;;;;;;4.80;2.60;;;;;;;19.76;52.09;99128.34;433724;1267;99246;-43
2022/06/11 19:07:51;;;;;;;11.00;3.90;;;;;;;19.19;52.62;99138.96;433544;1268;111402;-43
2022/06/11 19:17:59;;;;;;;10.90;5.50;;;;;;;18.67;53.66;99152.89;433640;1267;108841;-42
2022/06/11 19:28:08;;;;;;;14.70;5.80;;;;;;;18.31;55.10;99167.98;433630;1268;99260;-40
2022/06/11 19:38:19;;;;;;;8.50;4.70;;;;;;;18.01;55.74;99175.48;433684;1268;108867;-42
2022/06/11 19:48:30;;;;;;;11.90;6.30;;;;;;;17.72;56.34;99177.48;433709;1267;98875;-42
2022/06/11 19:58:36;;;;;;;9.00;6.00;;;;;;;17.35;57.49;99175.02;433721;1268;112441;-42
2022/06/11 20:08:47;;;;;;;10.90;6.70;;;;;;;17.20;58.28;99171.14;433498;1267;108714;-43
2022/06/11 20:18:55;;;;;;;9.90;6.60;;;;;;;17.15;59.16;99178.55;433676;1267;98830;-42
2022/06/11 20:29:04;;;;;;;18.30;9.50;;;;;;;17.16;59.86;99181.13;433572;1267;108782;-40
2022/06/11 20:59:48;;;;;;;16.10;9.90;;;;;;;16.22;61.38;99190.27;433757;1267;108948;-41
2022/06/11 21:09:55;;;;;;;14.20;9.70;;;;;;;16.21;62.17;99190.80;434036;1268;98825;-41
2022/06/11 21:20:04;;;;;;;26.20;12.40;;;;;;;16.19;62.85;99193.44;433847;1267;108831;-41
2022/06/11 21:30:14;;;;;;;26.50;13.40;;;;;;;15.98;63.11;99195.89;433423;1266;604933;-39
2022/06/11 21:40:22;;;;;;;21.50;14.40;;;;;;;15.82;63.70;99193.36;433760;1267;112688;-41
2022/06/11 21:50:30;;;;;;;29.30;17.90;;;;;;;15.67;63.92;99190.95;433862;1266;107963;-41
2022/06/11 22:01:20;;;;;;;32.10;18.30;;;;;;;15.55;64.33;99191.33;433814;1267;98650;-41
2022/06/11 22:11:26;;;;;;;30.60;20.00;;;;;;;15.44;64.90;99188.52;433900;1267;108626;-40
2022/06/11 22:21:37;;;;;;;30.50;19.50;;;;;;;15.27;65.05;99185.32;433868;1267;99241;-41
2022/06/11 22:31:45;;;;;;;35.00;16.30;;;;;;;15.30;65.43;99188.28;433950;1267;113051;-43
2022/06/11 22:41:53;;;;;;;23.00;13.70;;;;;;;15.33;65.53;99188.43;433569;1267;108717;-41
2022/06/11 22:52:00;;;;;;;27.90;17.00;;;;;;;15.24;65.79;99178.56;433765;1267;99257;-40
2022/06/11 23:12:15;;;;;;;23.80;16.60;;;;;;;14.98;66.49;99173.04;433807;1267;97956;-43
2022/06/11 23:22:22;;;;;;;26.50;16.50;;;;;;;14.97;66.85;99168.23;433661;1267;112392;-41
2022/06/11 23:32:30;;;;;;;25.20;18.00;;;;;;;14.76;66.66;99165.52;433655;1268;108793;-40
2022/06/11 23:42:38;;;;;;;25.90;18.00;;;;;;;14.52;67.14;99160.15;433463;1267;99279;-40
2022/06/11 23:52:46;;;;;;;28.60;16.30;;;;;;;14.36;67.49;99159.11;433586;1268;107752;-43
